createdAt,value
2023-05-21T00:02:06.604Z,4.53
2023-05-21T00:04:54.321Z,4.85
2023-05-21T00:07:42.106Z,4.65
2023-05-21T00:10:29.939Z,4.65
2023-05-21T00:13:17.718Z,5.15
2023-05-21T00:16:06.084Z,5.22
2023-05-21T00:18:54.687Z,5.15
2023-05-21T00:21:42.650Z,5.05
2023-05-21T00:24:30.376Z,5.85
2023-05-21T00:27:18.303Z,5.32
2023-05-21T00:30:07.312Z,5.93
2023-05-21T00:32:55.157Z,5.97
2023-05-21T00:35:43.028Z,5.82
2023-05-21T00:38:32.930Z,5.20
2023-05-21T00:41:23.031Z,5.13
2023-05-21T00:44:14.129Z,4.72
2023-05-21T00:47:03.050Z,5.50
2023-05-21T00:49:53.210Z,5.40
2023-05-21T00:52:44.011Z,5.13
2023-05-21T00:55:31.822Z,5.57
2023-05-21T00:58:19.791Z,4.88
2023-05-21T01:01:13.712Z,4.97
2023-05-21T01:04:02.347Z,4.75
2023-05-21T01:06:50.199Z,5.07
2023-05-21T01:09:42.532Z,4.82
2023-05-21T01:12:33.154Z,5.20
2023-05-21T01:15:21.021Z,4.45
2023-05-21T01:18:09.643Z,4.60
2023-05-21T01:20:57.770Z,4.43
2023-05-21T01:23:46.004Z,4.13
2023-05-21T01:26:38.643Z,4.25
2023-05-21T01:29:26.522Z,4.18
2023-05-21T01:32:23.501Z,4.30
2023-05-21T01:35:19.550Z,3.95
2023-05-21T01:38:31.209Z,3.95
2023-05-21T01:41:21.430Z,4.28
2023-05-21T01:44:11.404Z,3.97
2023-05-21T01:47:00.390Z,4.05
2023-05-21T01:49:48.669Z,3.92
2023-05-21T01:52:36.901Z,4.03
2023-05-21T01:55:25.305Z,4.43
2023-05-21T01:58:13.155Z,4.07
2023-05-21T02:01:00.943Z,4.50
2023-05-21T02:03:48.967Z,4.07
2023-05-21T02:06:39.423Z,4.30
2023-05-21T02:09:27.608Z,4.07
2023-05-21T02:12:15.576Z,4.35
2023-05-21T02:15:04.676Z,4.28
2023-05-21T02:17:53.052Z,4.47
2023-05-21T02:20:40.952Z,4.43
2023-05-21T02:23:28.731Z,4.38
2023-05-21T02:26:17.792Z,4.60
2023-05-21T02:29:05.933Z,4.45
2023-05-21T02:31:53.811Z,4.30
2023-05-21T02:34:43.970Z,4.13
2023-05-21T02:37:34.161Z,4.63
2023-05-21T02:40:22.009Z,4.53
2023-05-21T02:43:09.868Z,4.30
2023-05-21T02:45:57.668Z,4.43
2023-05-21T02:48:47.428Z,4.50
2023-05-21T02:51:36.218Z,4.70
2023-05-21T02:54:24.089Z,4.55
2023-05-21T02:57:12.318Z,4.68
2023-05-21T03:00:00.179Z,4.85
2023-05-21T03:02:48.180Z,5.07
2023-05-21T03:05:36.445Z,4.43
2023-05-21T03:08:24.851Z,4.47
2023-05-21T03:11:13.181Z,4.88
2023-05-21T03:14:01.043Z,5.03
2023-05-21T03:16:49.228Z,5.53
2023-05-21T03:19:38.719Z,5.03
2023-05-21T03:22:26.496Z,4.18
2023-05-21T03:25:14.973Z,5.10
2023-05-21T03:28:03.004Z,4.78
2023-05-21T03:31:11.565Z,5.13
2023-05-21T03:34:10.088Z,4.82
2023-05-21T03:36:57.810Z,4.47
2023-05-21T03:39:45.772Z,5.03
2023-05-21T03:42:34.024Z,5.32
2023-05-21T03:45:21.963Z,5.20
2023-05-21T03:48:29.674Z,5.22
2023-05-21T03:51:18.065Z,4.50
2023-05-21T03:54:05.882Z,5.20
2023-05-21T03:56:55.633Z,5.28
2023-05-21T03:59:45.233Z,5.30
2023-05-21T04:02:33.140Z,5.18
2023-05-21T04:05:21.182Z,5.47
2023-05-21T04:08:09.182Z,4.90
2023-05-21T04:10:57.975Z,5.18
2023-05-21T04:13:46.210Z,5.63
2023-05-21T04:16:35.495Z,5.40
2023-05-21T04:19:24.805Z,5.55
2023-05-21T04:22:12.703Z,5.20
2023-05-21T04:25:00.605Z,5.32
2023-05-21T04:27:52.688Z,5.32
2023-05-21T04:30:40.549Z,5.47
2023-05-21T04:33:30.397Z,5.85
2023-05-21T04:36:18.369Z,5.32
2023-05-21T04:39:07.286Z,5.38
2023-05-21T04:41:56.616Z,5.50
2023-05-21T04:44:45.077Z,5.80
2023-05-21T04:47:35.499Z,5.47
2023-05-21T04:50:24.435Z,5.53
2023-05-21T04:53:12.272Z,5.65
2023-05-21T04:56:00.443Z,5.32
2023-05-21T04:58:49.308Z,6.07
2023-05-21T05:01:38.392Z,5.57
2023-05-21T05:04:26.645Z,5.60
2023-05-21T05:07:15.036Z,6.05
2023-05-21T05:10:03.391Z,5.85
2023-05-21T05:12:53.711Z,5.30
2023-05-21T05:15:41.947Z,6.05
2023-05-21T05:18:30.024Z,6.10
2023-05-21T05:21:18.097Z,6.10
2023-05-21T05:24:06.499Z,6.10
2023-05-21T05:26:54.529Z,6.05
2023-05-21T05:29:42.358Z,6.40
2023-05-21T05:32:30.185Z,6.22
2023-05-21T05:35:17.977Z,6.20
2023-05-21T05:38:05.913Z,6.38
2023-05-21T05:40:53.850Z,6.00
2023-05-21T05:43:42.545Z,5.60
2023-05-21T05:46:30.447Z,6.40
2023-05-21T05:49:18.823Z,6.38
2023-05-21T05:52:07.176Z,6.22
2023-05-21T05:54:54.952Z,6.75
2023-05-21T05:57:44.438Z,5.75
2023-05-21T06:00:35.442Z,6.47
2023-05-21T06:03:25.031Z,6.43
2023-05-21T06:06:14.701Z,6.32
2023-05-21T06:09:03.363Z,5.85
2023-05-21T06:11:51.855Z,6.25
2023-05-21T06:14:39.784Z,5.90
2023-05-21T06:17:27.668Z,6.22
2023-05-21T06:20:16.526Z,6.13
2023-05-21T06:23:06.486Z,6.47
2023-05-21T06:25:54.420Z,6.65
2023-05-21T06:28:42.362Z,6.43
2023-05-21T06:31:33.425Z,6.72
2023-05-21T06:34:21.351Z,5.90
2023-05-21T06:37:09.377Z,6.72
2023-05-21T06:39:57.193Z,6.85
2023-05-21T06:42:45.052Z,6.20
2023-05-21T06:45:59.061Z,6.50
2023-05-21T06:48:58.523Z,6.20
2023-05-21T06:51:46.665Z,7.03
2023-05-21T06:54:34.834Z,7.03
2023-05-21T06:57:22.783Z,7.43
2023-05-21T07:00:12.539Z,7.18
2023-05-21T07:03:01.195Z,7.20
2023-05-21T07:05:49.146Z,6.80
2023-05-21T07:08:36.980Z,7.25
2023-05-21T07:11:28.725Z,6.55
2023-05-21T07:14:17.823Z,7.47
2023-05-21T07:17:05.897Z,7.38
2023-05-21T07:19:54.787Z,7.07
2023-05-21T07:22:44.033Z,6.88
2023-05-21T07:25:33.217Z,7.18
2023-05-21T07:28:21.107Z,6.95
2023-05-21T07:31:09.001Z,6.97
2023-05-21T07:34:01.812Z,6.80
2023-05-21T07:36:52.674Z,6.95
2023-05-21T07:39:40.946Z,6.85
2023-05-21T07:42:31.240Z,7.63
2023-05-21T07:45:19.657Z,7.30
2023-05-21T07:48:07.560Z,6.78
2023-05-21T07:51:00.621Z,7.10
2023-05-21T07:53:49.266Z,7.60
2023-05-21T07:56:40.248Z,6.93
2023-05-21T07:59:30.325Z,7.03
2023-05-21T08:02:18.312Z,7.40
2023-05-21T08:05:07.752Z,6.93
2023-05-21T08:07:56.669Z,7.13
2023-05-21T08:10:45.541Z,7.60
2023-05-21T08:13:33.878Z,7.22
2023-05-21T08:16:24.233Z,7.68
2023-05-21T08:19:12.300Z,7.75
2023-05-21T08:22:00.245Z,7.35
2023-05-21T08:24:48.370Z,7.10
2023-05-21T08:27:36.462Z,7.65
2023-05-21T08:30:24.714Z,6.90
2023-05-21T08:33:12.864Z,7.70
2023-05-21T08:36:01.047Z,8.43
2023-05-21T08:38:50.819Z,8.05
2023-05-21T08:41:49.868Z,7.65
2023-05-21T08:44:44.406Z,7.72
2023-05-21T08:47:36.258Z,7.55
2023-05-21T08:50:27.950Z,7.60
2023-05-21T08:53:27.513Z,8.43
2023-05-21T08:56:18.397Z,8.07
2023-05-21T08:59:19.122Z,7.93
2023-05-21T09:02:08.739Z,8.15
2023-05-21T09:04:59.374Z,7.50
2023-05-21T09:07:56.014Z,8.10
2023-05-21T09:10:55.153Z,8.57
2023-05-21T09:13:51.730Z,8.20
2023-05-21T09:16:48.750Z,9.05
2023-05-21T09:19:38.711Z,8.85
2023-05-21T09:22:27.802Z,9.35
2023-05-21T09:25:18.972Z,9.15
2023-05-21T09:28:13.704Z,9.20
2023-05-21T09:31:03.767Z,8.70
2023-05-21T09:33:51.729Z,10.98
2023-05-21T09:36:40.920Z,10.52
2023-05-21T09:39:31.910Z,10.63
2023-05-21T09:42:23.215Z,10.13
2023-05-21T09:45:12.306Z,10.68
2023-05-21T09:48:00.795Z,10.15
2023-05-21T09:50:48.733Z,10.85
2023-05-21T09:53:37.059Z,11.32
2023-05-21T09:56:30.701Z,11.02
2023-05-21T09:59:18.496Z,10.60
2023-05-21T10:02:21.856Z,11.05
2023-05-21T10:05:13.508Z,10.85
2023-05-21T10:10:51.337Z,11.13
2023-05-21T10:13:45.494Z,11.45
2023-05-21T10:16:35.811Z,11.70
2023-05-21T10:19:25.651Z,11.40
2023-05-21T10:22:14.116Z,12.77
2023-05-21T10:25:03.706Z,11.98
2023-05-21T10:27:55.364Z,11.85
2023-05-21T10:30:44.995Z,11.52
2023-05-21T10:33:35.850Z,10.95
2023-05-21T10:36:33.441Z,12.03
2023-05-21T10:39:24.150Z,11.68
2023-05-21T10:42:33.235Z,12.60
2023-05-21T10:45:47.956Z,12.23
2023-05-21T10:48:51.885Z,12.07
2023-05-21T10:52:11.899Z,13.05
2023-05-21T10:55:36.460Z,13.60
2023-05-21T10:58:32.512Z,13.20
2023-05-21T11:01:21.237Z,12.27
2023-05-21T11:04:09.830Z,13.38
2023-05-21T11:06:59.288Z,13.45
2023-05-21T11:09:50.633Z,13.93
2023-05-21T11:13:14.605Z,13.02
2023-05-21T11:16:06.093Z,12.85
2023-05-21T11:18:55.040Z,14.15
2023-05-21T11:21:42.826Z,12.98
2023-05-21T11:24:33.689Z,13.05
2023-05-21T11:27:39.885Z,13.13
2023-05-21T11:30:27.925Z,12.38
2023-05-21T11:33:15.652Z,12.55
2023-05-21T11:36:13.244Z,13.05
2023-05-21T11:39:21.996Z,13.27
2023-05-21T11:42:09.869Z,13.20
2023-05-21T11:44:59.582Z,13.20
2023-05-21T11:47:49.602Z,13.10
2023-05-21T11:50:37.918Z,12.32
2023-05-21T11:53:25.967Z,12.13
2023-05-21T11:56:14.731Z,12.32
2023-05-21T11:59:03.084Z,13.48
2023-05-21T12:01:51.177Z,12.73
2023-05-21T12:04:39.012Z,13.35
2023-05-21T12:07:29.866Z,13.38
2023-05-21T12:10:22.341Z,12.27
2023-05-21T12:13:10.680Z,12.90
2023-05-21T12:15:58.797Z,13.15
2023-05-21T12:18:46.750Z,13.23
2023-05-21T12:21:36.262Z,13.40
2023-05-21T12:24:24.118Z,12.02
2023-05-21T12:27:13.519Z,12.32
2023-05-21T12:30:01.419Z,11.68
2023-05-21T12:32:49.580Z,12.57
2023-05-21T12:35:37.754Z,12.45
2023-05-21T12:38:31.648Z,11.93
2023-05-21T12:41:21.333Z,11.40
2023-05-21T12:44:09.211Z,11.65
2023-05-21T12:46:58.411Z,12.38
2023-05-21T12:49:49.498Z,12.57
2023-05-21T12:52:37.252Z,11.90
2023-05-21T12:55:28.809Z,12.02
2023-05-21T12:58:21.662Z,12.35
2023-05-21T13:01:11.615Z,12.27
2023-05-21T13:03:59.438Z,12.63
2023-05-21T13:06:47.588Z,12.68
2023-05-21T13:09:35.537Z,12.90
2023-05-21T13:12:26.121Z,12.40
2023-05-21T13:15:14.493Z,12.47
2023-05-21T13:18:02.363Z,11.05
2023-05-21T13:20:51.639Z,12.57
2023-05-21T13:23:39.403Z,11.50
2023-05-21T13:26:27.329Z,12.15
2023-05-21T13:29:15.243Z,12.52
2023-05-21T13:32:03.009Z,10.60
2023-05-21T13:34:50.947Z,11.23
2023-05-21T13:37:42.209Z,10.93
2023-05-21T13:40:29.974Z,11.52
2023-05-21T13:43:17.763Z,10.73
2023-05-21T13:46:05.698Z,12.40
2023-05-21T13:48:53.491Z,11.35
2023-05-21T13:51:41.362Z,12.15
2023-05-21T13:54:29.795Z,11.43
2023-05-21T13:57:17.851Z,11.30
2023-05-21T14:00:09.085Z,11.43
2023-05-21T14:02:57.997Z,12.10
2023-05-21T14:05:48.333Z,12.05
2023-05-21T14:08:36.136Z,11.65
2023-05-21T14:11:24.041Z,11.43
2023-05-21T14:14:14.123Z,11.68
2023-05-21T14:17:02.050Z,11.15
2023-05-21T14:19:49.799Z,11.27
2023-05-21T14:22:38.407Z,10.57
2023-05-21T14:25:26.317Z,11.45
2023-05-21T14:28:14.121Z,10.95
2023-05-21T14:31:01.917Z,11.18
2023-05-21T14:33:49.844Z,11.15
2023-05-21T14:36:37.749Z,10.77
2023-05-21T14:39:25.519Z,11.30
2023-05-21T14:42:13.432Z,11.13
2023-05-21T14:45:16.987Z,10.80
2023-05-21T14:48:08.699Z,11.10
2023-05-21T14:50:56.586Z,11.02
2023-05-21T14:53:44.402Z,11.60
2023-05-21T14:56:32.558Z,10.73
2023-05-21T14:59:20.457Z,10.43
2023-05-21T15:02:08.294Z,11.27
2023-05-21T15:04:56.429Z,10.70
2023-05-21T15:07:44.568Z,11.00
2023-05-21T15:10:32.397Z,10.50
2023-05-21T15:13:21.394Z,9.98
2023-05-21T15:16:09.368Z,10.13
2023-05-21T15:18:57.245Z,11.35
2023-05-21T15:21:45.061Z,11.68
2023-05-21T15:24:32.953Z,10.45
2023-05-21T15:27:20.728Z,10.85
2023-05-21T15:30:08.918Z,11.68
2023-05-21T15:32:56.793Z,11.07
2023-05-21T15:35:45.048Z,11.25
2023-05-21T15:38:33.558Z,10.13
2023-05-21T15:41:22.056Z,11.30
2023-05-21T15:44:09.808Z,10.93
2023-05-21T15:46:57.839Z,10.75
2023-05-21T15:49:45.745Z,11.05
2023-05-21T15:52:33.538Z,10.38
2023-05-21T15:55:21.608Z,10.73
2023-05-21T15:58:09.518Z,10.48
2023-05-21T16:00:57.438Z,11.00
2023-05-21T16:03:45.282Z,10.45
2023-05-21T16:06:33.675Z,10.50
2023-05-21T16:09:21.422Z,10.27
2023-05-21T16:12:09.218Z,9.85
2023-05-21T16:14:57.142Z,11.38
2023-05-21T16:17:44.964Z,11.15
2023-05-21T16:20:33.413Z,11.95
2023-05-21T16:23:21.274Z,10.88
2023-05-21T16:26:10.123Z,9.60
2023-05-21T16:28:58.852Z,9.55
2023-05-21T16:31:47.567Z,10.65
2023-05-21T16:34:36.280Z,11.00
2023-05-21T16:37:24.153Z,9.80
2023-05-21T16:40:13.379Z,10.93
2023-05-21T16:43:02.207Z,11.32
2023-05-21T16:45:52.334Z,9.68
2023-05-21T16:48:41.859Z,10.20
2023-05-21T16:51:31.150Z,13.18
2023-05-21T16:54:18.950Z,13.75
2023-05-21T16:57:06.888Z,11.13
2023-05-21T16:59:54.676Z,11.52
2023-05-21T17:02:42.557Z,11.25
2023-05-21T17:05:30.795Z,11.50
2023-05-21T17:08:18.627Z,11.70
2023-05-21T17:11:06.436Z,11.45
2023-05-21T17:13:54.138Z,11.05
2023-05-21T17:16:42.928Z,12.00
2023-05-21T17:19:31.035Z,12.32
2023-05-21T17:22:19.682Z,11.68
2023-05-21T17:25:08.404Z,11.10
2023-05-21T17:27:57.582Z,11.13
2023-05-21T17:30:46.810Z,12.40
2023-05-21T17:33:38.040Z,11.60
2023-05-21T17:36:25.878Z,12.07
2023-05-21T17:39:13.708Z,12.13
2023-05-21T17:42:01.789Z,12.00
2023-05-21T17:44:49.520Z,11.85
2023-05-21T17:47:37.481Z,12.10
2023-05-21T17:50:25.336Z,12.02
2023-05-21T17:53:13.300Z,13.32
2023-05-21T17:56:03.316Z,13.77
2023-05-21T17:58:51.454Z,11.63
2023-05-21T18:01:40.373Z,12.48
2023-05-21T18:04:28.402Z,11.90
2023-05-21T18:07:16.614Z,13.68
2023-05-21T18:10:05.053Z,11.90
2023-05-21T18:12:52.813Z,12.90
2023-05-21T18:15:40.570Z,13.50
2023-05-21T18:18:28.338Z,11.88
2023-05-21T18:21:16.440Z,11.85
2023-05-21T18:24:06.342Z,11.50
2023-05-21T18:26:54.191Z,12.00
2023-05-21T18:29:41.963Z,11.43
2023-05-21T18:32:29.881Z,11.55
2023-05-21T18:35:17.923Z,13.00
2023-05-21T18:38:09.843Z,11.48
2023-05-21T18:40:57.731Z,11.93
2023-05-21T18:43:46.216Z,12.48
2023-05-21T18:46:35.574Z,12.63
2023-05-21T18:49:23.518Z,12.18
2023-05-21T18:52:11.460Z,12.70
2023-05-21T18:54:59.268Z,12.20
2023-05-21T18:57:47.121Z,12.38
2023-05-21T19:00:35.259Z,13.95
2023-05-21T19:03:23.299Z,12.93
2023-05-21T19:06:11.241Z,11.98
2023-05-21T19:08:59.216Z,12.30
2023-05-21T19:11:46.956Z,12.68
2023-05-21T19:14:35.116Z,13.40
2023-05-21T19:17:22.849Z,13.70
2023-05-21T19:20:10.868Z,13.63
2023-05-21T19:22:58.734Z,13.55
2023-05-21T19:25:46.598Z,13.48
2023-05-21T19:28:34.565Z,14.13
2023-05-21T19:31:23.530Z,14.43
2023-05-21T19:34:11.722Z,14.02
2023-05-21T19:36:59.631Z,13.50
2023-05-21T19:39:49.961Z,13.82
2023-05-21T19:42:38.088Z,13.20
2023-05-21T19:45:25.921Z,13.52
2023-05-21T19:48:13.936Z,13.60
2023-05-21T19:51:02.741Z,13.27
2023-05-21T19:53:50.912Z,12.45
2023-05-21T19:56:38.900Z,13.95
2023-05-21T19:59:26.898Z,14.68
2023-05-21T20:02:16.928Z,14.45
2023-05-21T20:05:05.257Z,14.40
2023-05-21T20:07:53.509Z,14.65
2023-05-21T20:10:41.384Z,15.23
2023-05-21T20:13:29.187Z,15.00
2023-05-21T20:16:18.398Z,14.73
2023-05-21T20:19:06.312Z,14.60
2023-05-21T20:21:54.187Z,15.77
2023-05-21T20:24:43.009Z,16.08
2023-05-21T20:27:30.901Z,15.30
2023-05-21T20:30:18.737Z,15.52
2023-05-21T20:33:06.604Z,15.90
2023-05-21T20:35:54.341Z,16.77
2023-05-21T20:38:42.234Z,15.77
2023-05-21T20:41:35.755Z,16.45
2023-05-21T20:44:25.851Z,15.90
2023-05-21T20:47:15.691Z,14.30
2023-05-21T20:50:04.841Z,14.85
2023-05-21T20:52:52.637Z,14.07
2023-05-21T20:55:44.324Z,13.68
2023-05-21T21:01:21.365Z,12.90
2023-05-21T21:04:09.131Z,11.98
2023-05-21T21:06:57.048Z,11.27
2023-05-21T21:09:49.204Z,11.75
2023-05-21T21:12:37.085Z,12.45
2023-05-21T21:15:24.948Z,12.40
2023-05-21T21:18:13.042Z,11.65
2023-05-21T21:21:03.951Z,10.95
2023-05-21T21:23:51.853Z,11.40
2023-05-21T21:26:39.640Z,12.23
2023-05-21T21:29:27.607Z,12.48
2023-05-21T21:32:15.655Z,12.32
2023-05-21T21:35:03.585Z,12.65
2023-05-21T21:37:51.491Z,13.48
2023-05-21T21:40:39.560Z,12.82
2023-05-21T21:43:27.593Z,14.75
2023-05-21T21:46:15.925Z,13.80
2023-05-21T21:49:04.128Z,15.48
2023-05-21T21:51:53.582Z,14.43
2023-05-21T21:54:41.528Z,15.35
2023-05-21T21:57:29.977Z,14.60
2023-05-21T22:00:18.319Z,15.57
2023-05-21T22:03:06.324Z,14.75
2023-05-21T22:05:55.115Z,17.70
2023-05-21T22:08:43.035Z,17.50
2023-05-21T22:11:30.828Z,16.58
2023-05-21T22:14:19.415Z,17.65
2023-05-21T22:17:08.478Z,18.02
2023-05-21T22:19:56.681Z,17.45
2023-05-21T22:22:47.548Z,18.70
2023-05-21T22:25:35.503Z,19.10
2023-05-21T22:28:23.321Z,20.30
2023-05-21T22:31:11.504Z,19.50
2023-05-21T22:33:59.448Z,19.33
2023-05-21T22:36:47.442Z,20.08
2023-05-21T22:39:35.329Z,19.55
2023-05-21T22:42:23.537Z,19.02
2023-05-21T22:45:11.819Z,19.95
2023-05-21T22:48:07.581Z,20.58
2023-05-21T22:50:58.069Z,20.73
2023-05-21T22:53:45.867Z,20.95
2023-05-21T22:56:34.843Z,20.60
2023-05-21T22:59:22.664Z,21.17
2023-05-21T23:02:11.918Z,21.50
2023-05-21T23:04:59.752Z,21.55
2023-05-21T23:07:47.592Z,22.15
2023-05-21T23:10:35.748Z,21.55
2023-05-21T23:13:23.600Z,21.73
2023-05-21T23:16:12.644Z,22.35
2023-05-21T23:19:00.472Z,21.75
2023-05-21T23:21:48.344Z,21.58
2023-05-21T23:24:36.382Z,21.17
2023-05-21T23:27:24.166Z,22.50
2023-05-21T23:30:12.147Z,22.33
2023-05-21T23:33:00.558Z,20.42
2023-05-21T23:35:48.868Z,21.50
2023-05-21T23:38:36.740Z,20.63
2023-05-21T23:41:24.625Z,20.02
2023-05-21T23:44:12.920Z,20.00
2023-05-21T23:47:00.728Z,20.67
2023-05-21T23:49:48.509Z,20.55
2023-05-21T23:52:36.434Z,19.73
2023-05-21T23:55:24.480Z,20.90
2023-05-21T23:58:12.387Z,20.58
